Darstellungsparameter: Aktuell verwendete Einstellungen:
Skalierung der Graphiken ... ?
xyx+y,   Skalierungsfaktor:      Skalierung: Modus: x, Faktor: 1
Darstellungszeitraum ... ?
Vom - - bis: - -   Zeitraum: 09.06.2021 - 09.06.2021
Min/Max/Avg-Anzeige ... ?
Zeige MMA aktuell
Zeige MMA Monat
Zeige MMA alles
Zeige --A aktuell
Zeige --A Monat
Zeige --A alles
Keine MMA-Anzeige
MMA:
Average (ber die Originaldaten)
MMA-Basis: 23.02.2003 - 23.04.2020
Quicknavigation für Darstellung... ?
Tage:      1T, 2T, 3T, 5T -1T -2T -3T -5T +1T +2T +3T +5T
Wochen: 1W, 2W, 3W -1W -2W -3W +1W +2W +3W
Monate: 1M, 3M, 6M -1M -3M -6M +1M +3M +6M
Jahre:    1J, 3J, 5J, 10J -1J -3J -5J -10J +1J +3J +5J +10J
Nutze für die Darstellung ... ?
Originaldaten oder Mittelwerte auf ...
Stundenbasis Tagesbasis Wochenbasis
Monatsbasis Jahresbasis      Datenbasis: Original-Daten
Darstellen als:
Statistik (Auto) Statistik J:M      Darstellung:
Zur Graphik,    zurück zur Übersicht aller Sensoren.
 
Tabellarische Datenbersicht: ?
 
Sensor: Nr:Datum:Temp:Abs-Feuchte:Windchill:Wind:
Aussen-T/F 1 09-06-2021 00:00:00 15.3 C 11.75 g/m*3 15.3 C 0 km/h
2 09-06-2021 00:05:00 15.3 C 11.75 g/m*3 15.3 C 0 km/h
3 09-06-2021 00:10:00 15.2 C 11.68 g/m*3 15.2 C 0 km/h
4 09-06-2021 00:15:00 15.2 C 11.81 g/m*3 15.2 C 0 km/h
5 09-06-2021 00:20:00 15.1 C 11.74 g/m*3 15.1 C 0 km/h
6 09-06-2021 00:25:00 15 C 11.67 g/m*3 15 C 0 km/h
7 09-06-2021 00:30:00 14.9 C 11.6 g/m*3 14.9 C 0 km/h
8 09-06-2021 00:35:00 14.9 C 11.6 g/m*3 14.9 C 0 km/h
9 09-06-2021 00:40:00 14.8 C 11.53 g/m*3 14.8 C 0 km/h
10 09-06-2021 00:45:00 14.8 C 11.53 g/m*3 14.8 C 1.6 km/h
11 09-06-2021 00:50:00 14.7 C 11.58 g/m*3 14.7 C 0 km/h
12 09-06-2021 00:55:00 14.7 C 11.58 g/m*3 14.7 C 0 km/h
13 09-06-2021 01:00:00 14.6 C 11.51 g/m*3 14.6 C 0 km/h
14 09-06-2021 01:05:00 14.6 C 11.51 g/m*3 14.6 C 0 km/h
15 09-06-2021 01:10:00 14.5 C 11.44 g/m*3 14.5 C 0 km/h
16 09-06-2021 01:15:00 14.4 C 11.37 g/m*3 14.4 C 0 km/h
17 09-06-2021 01:20:00 14.4 C 11.37 g/m*3 14.4 C 0 km/h
18 09-06-2021 01:25:00 14.3 C 11.3 g/m*3 14.3 C 0 km/h
19 09-06-2021 01:30:00 14.3 C 11.43 g/m*3 14.3 C 0 km/h
20 09-06-2021 01:35:00 14.2 C 11.23 g/m*3 14.2 C 0 km/h
21 09-06-2021 01:40:00 14.2 C 11.36 g/m*3 14.2 C 0 km/h
22 09-06-2021 01:45:00 14.1 C 11.29 g/m*3 14.1 C 0 km/h
23 09-06-2021 01:50:00 14.1 C 11.29 g/m*3 14.1 C 0 km/h
24 09-06-2021 01:55:00 14 C 11.22 g/m*3 14 C 0 km/h
25 09-06-2021 02:00:00 14 C 11.22 g/m*3 14 C 0 km/h
Sensor: Nr:Datum:Temp:Abs-Feuchte:Windchill:Wind:
Aussen-T/F 26 09-06-2021 02:05:00 13.9 C 11.15 g/m*3 13.9 C 0 km/h
27 09-06-2021 02:10:00 13.9 C 11.15 g/m*3 13.9 C 0 km/h
28 09-06-2021 02:15:00 13.8 C 11.08 g/m*3 13.8 C 0 km/h
29 09-06-2021 02:20:00 13.8 C 11.2 g/m*3 13.8 C 0 km/h
30 09-06-2021 02:25:00 13.8 C 11.2 g/m*3 13.8 C 0 km/h
31 09-06-2021 02:30:00 13.8 C 11.2 g/m*3 13.8 C 0 km/h
32 09-06-2021 02:35:00 13.8 C 11.2 g/m*3 13.8 C 0 km/h
33 09-06-2021 02:40:00 13.8 C 11.2 g/m*3 13.8 C 0 km/h
34 09-06-2021 02:45:00 13.7 C 11.13 g/m*3 13.7 C 0 km/h
35 09-06-2021 02:50:00 13.7 C 11.13 g/m*3 13.7 C 0 km/h
36 09-06-2021 02:55:00 13.7 C 11.13 g/m*3 13.7 C 0 km/h
37 09-06-2021 03:00:00 13.7 C 11.13 g/m*3 13.7 C 3.2 km/h
38 09-06-2021 03:05:00 13.7 C 11.13 g/m*3 13.7 C 0 km/h
39 09-06-2021 03:10:00 13.8 C 11.2 g/m*3 13.8 C 0 km/h
40 09-06-2021 03:15:00 13.8 C 11.32 g/m*3 13.8 C 0 km/h
41 09-06-2021 03:20:00 13.9 C 11.39 g/m*3 13.9 C 0 km/h
42 09-06-2021 03:25:00 13.9 C 11.39 g/m*3 13.9 C 0 km/h
43 09-06-2021 03:30:00 14 C 11.46 g/m*3 14 C 0 km/h
44 09-06-2021 03:35:00 14.1 C 11.53 g/m*3 14.1 C 0 km/h
45 09-06-2021 03:40:00 14.1 C 11.53 g/m*3 14.1 C 0 km/h
46 09-06-2021 03:45:00 14.2 C 11.6 g/m*3 14.2 C 0 km/h
47 09-06-2021 03:50:00 14.2 C 11.6 g/m*3 14.2 C 0 km/h
48 09-06-2021 03:55:00 14.2 C 11.6 g/m*3 14.2 C 0 km/h
49 09-06-2021 04:00:00 14.2 C 11.6 g/m*3 14.2 C 0 km/h
50 09-06-2021 04:05:00 14.1 C 11.53 g/m*3 14.1 C 1.6 km/h
Sensor: Nr:Datum:Temp:Abs-Feuchte:Windchill:Wind:
Aussen-T/F 51 09-06-2021 04:10:00 14.1 C 11.53 g/m*3 14.1 C 0 km/h
52 09-06-2021 04:15:00 14.1 C 11.53 g/m*3 14.1 C 0 km/h
53 09-06-2021 04:20:00 14.1 C 11.53 g/m*3 14.1 C 0 km/h
54 09-06-2021 04:25:00 14.1 C 11.53 g/m*3 14.1 C 0 km/h
55 09-06-2021 04:30:00 14.1 C 11.53 g/m*3 14.1 C 1.6 km/h
56 09-06-2021 04:35:00 14 C 11.46 g/m*3 14 C 0 km/h
57 09-06-2021 04:40:00 13.9 C 11.39 g/m*3 13.9 C 0 km/h
58 09-06-2021 04:45:00 13.8 C 11.32 g/m*3 13.8 C 0 km/h
59 09-06-2021 04:50:00 13.7 C 11.13 g/m*3 13.7 C 0 km/h
60 09-06-2021 04:55:00 13.6 C 11.06 g/m*3 13.6 C 0 km/h
61 09-06-2021 05:00:00 13.6 C 11.06 g/m*3 13.6 C 0 km/h
62 09-06-2021 05:05:00 13.4 C 10.93 g/m*3 13.4 C 0 km/h
63 09-06-2021 05:10:00 13.4 C 10.93 g/m*3 13.4 C 0 km/h
64 09-06-2021 05:15:00 13.3 C 10.86 g/m*3 13.3 C 0 km/h
65 09-06-2021 05:20:00 13.3 C 10.86 g/m*3 13.3 C 0 km/h
66 09-06-2021 05:25:00 13.3 C 10.98 g/m*3 13.3 C 0 km/h
67 09-06-2021 05:30:00 13.2 C 10.91 g/m*3 13.2 C 0 km/h
68 09-06-2021 05:35:00 13.2 C 10.91 g/m*3 13.2 C 0 km/h
69 09-06-2021 05:40:00 13.2 C 10.91 g/m*3 13.2 C 0 km/h
70 09-06-2021 05:45:00 13.2 C 10.91 g/m*3 13.2 C 1.6 km/h
71 09-06-2021 05:50:00 13.2 C 10.91 g/m*3 13.2 C 0 km/h
72 09-06-2021 05:55:00 13.2 C 10.91 g/m*3 13.2 C 0 km/h
73 09-06-2021 06:00:00 13.3 C 10.98 g/m*3 13.3 C 0 km/h
74 09-06-2021 06:05:00 13.3 C 10.98 g/m*3 13.3 C 0 km/h
75 09-06-2021 06:10:00 13.4 C 11.16 g/m*3 13.4 C 4.8 km/h
Sensor: Nr:Datum:Temp:Abs-Feuchte:Windchill:Wind:
Aussen-T/F 76 09-06-2021 06:15:00 13.4 C 11.16 g/m*3 13.4 C 0 km/h
77 09-06-2021 06:20:00 13.4 C 11.04 g/m*3 13.4 C 0 km/h
78 09-06-2021 06:25:00 13.5 C 11.11 g/m*3 13.5 C 1.6 km/h
79 09-06-2021 06:30:00 13.5 C 11.11 g/m*3 13.5 C 3.2 km/h
80 09-06-2021 06:35:00 13.5 C 11.11 g/m*3 13.5 C 4.8 km/h
81 09-06-2021 06:40:00 13.6 C 11.3 g/m*3 13.6 C 4.8 km/h
82 09-06-2021 06:45:00 13.6 C 11.3 g/m*3 13.6 C 6.4 km/h
83 09-06-2021 06:50:00 13.6 C 11.18 g/m*3 13.6 C 1.6 km/h
84 09-06-2021 06:55:00 13.6 C 11.18 g/m*3 13.6 C 1.6 km/h
85 09-06-2021 07:00:00 13.6 C 11.18 g/m*3 13.6 C 4.8 km/h
86 09-06-2021 07:05:00 13.7 C 11.37 g/m*3 13.7 C 0 km/h
87 09-06-2021 07:10:00 13.7 C 11.37 g/m*3 13.7 C 3.2 km/h
88 09-06-2021 07:15:00 13.8 C 11.44 g/m*3 13.8 C 1.6 km/h
89 09-06-2021 07:20:00 13.8 C 11.44 g/m*3 13.8 C 4.8 km/h
90 09-06-2021 07:25:00 13.8 C 11.44 g/m*3 13.8 C 1.6 km/h
91 09-06-2021 07:30:00 13.9 C 11.51 g/m*3 13.9 C 0 km/h
92 09-06-2021 07:35:00 14 C 11.58 g/m*3 14 C 1.6 km/h
93 09-06-2021 07:40:00 14.1 C 11.65 g/m*3 14.1 C 0 km/h
94 09-06-2021 07:45:00 14.1 C 11.65 g/m*3 14.1 C 0 km/h
95 09-06-2021 07:50:00 14.2 C 11.72 g/m*3 14.2 C 0 km/h
96 09-06-2021 07:55:00 14.3 C 11.79 g/m*3 14.3 C 0 km/h
97 09-06-2021 08:00:00 14.4 C 11.87 g/m*3 14.4 C 0 km/h
98 09-06-2021 08:05:00 14.5 C 11.94 g/m*3 14.5 C 0 km/h
99 09-06-2021 08:10:00 14.6 C 12.01 g/m*3 14.6 C 0 km/h
100 09-06-2021 08:15:00 14.7 C 12.09 g/m*3 14.7 C 0 km/h
Sensor: Nr:Datum:Temp:Abs-Feuchte:Windchill:Wind:
Aussen-T/F 101 09-06-2021 08:20:00 14.8 C 12.16 g/m*3 14.8 C 1.6 km/h
102 09-06-2021 08:25:00 14.9 C 12.24 g/m*3 14.9 C 0 km/h
103 09-06-2021 08:30:00 14.9 C 12.24 g/m*3 14.9 C 0 km/h
104 09-06-2021 08:35:00 15 C 12.31 g/m*3 15 C 3.2 km/h
105 09-06-2021 08:40:00 15.1 C 12.26 g/m*3 15.1 C 3.2 km/h
106 09-06-2021 08:45:00 15.2 C 12.33 g/m*3 15.2 C 1.6 km/h
107 09-06-2021 08:50:00 15.4 C 12.35 g/m*3 15.4 C 4.8 km/h
108 09-06-2021 08:55:00 15.6 C 12.5 g/m*3 15.6 C 4.8 km/h
109 09-06-2021 09:00:00 15.8 C 12.65 g/m*3 15.8 C 1.6 km/h
110 09-06-2021 09:05:00 16 C 12.81 g/m*3 16 C 0 km/h
111 09-06-2021 09:10:00 16.1 C 12.75 g/m*3 16.1 C 1.6 km/h
112 09-06-2021 09:15:00 16.2 C 12.69 g/m*3 16.2 C 3.2 km/h
113 09-06-2021 09:20:00 16.4 C 12.84 g/m*3 16.4 C 1.6 km/h
114 09-06-2021 09:25:00 16.6 C 13 g/m*3 16.6 C 0 km/h
115 09-06-2021 09:30:00 16.8 C 13.15 g/m*3 16.8 C 0 km/h
116 09-06-2021 09:35:00 16.9 C 13.23 g/m*3 16.9 C 1.6 km/h
117 09-06-2021 09:40:00 16.9 C 13.23 g/m*3 16.9 C 0 km/h
118 09-06-2021 09:45:00 17.1 C 13.54 g/m*3 17.1 C 0 km/h
119 09-06-2021 09:50:00 17.2 C 13.47 g/m*3 17.2 C 0 km/h
120 09-06-2021 09:55:00 17.3 C 13.7 g/m*3 17.3 C 0 km/h
121 09-06-2021 10:00:00 17.4 C 13.63 g/m*3 17.4 C 0 km/h
122 09-06-2021 10:05:00 17.5 C 13.72 g/m*3 17.5 C 0 km/h
123 09-06-2021 10:10:00 17.7 C 13.88 g/m*3 17.7 C 1.6 km/h
124 09-06-2021 10:15:00 17.9 C 14.05 g/m*3 17.9 C 0 km/h
125 09-06-2021 10:20:00 18.2 C 14.3 g/m*3 18.2 C 0 km/h
Sensor: Nr:Datum:Temp:Abs-Feuchte:Windchill:Wind:
Aussen-T/F 126 09-06-2021 10:25:00 18.4 C 14.16 g/m*3 18.4 C 0 km/h
127 09-06-2021 10:30:00 18.9 C 14.42 g/m*3 18.9 C 0 km/h
128 09-06-2021 10:35:00 19.3 C 14.6 g/m*3 19.3 C 0 km/h
129 09-06-2021 10:40:00 19.8 C 14.52 g/m*3 19.8 C 1.6 km/h
130 09-06-2021 10:45:00 20.2 C 14.69 g/m*3 20.2 C 4.8 km/h
131 09-06-2021 10:50:00 20.6 C 14.5 g/m*3 20.6 C 3.2 km/h
132 09-06-2021 10:55:00 20.8 C 14.85 g/m*3 20.8 C 0 km/h
133 09-06-2021 11:00:00 20.9 C 14.02 g/m*3 20.9 C 3.2 km/h
134 09-06-2021 11:05:00 21.1 C 14.56 g/m*3 21.1 C 0 km/h
135 09-06-2021 11:10:00 21.2 C 14.64 g/m*3 21.2 C 0 km/h
136 09-06-2021 11:15:00 21.3 C 13.98 g/m*3 21.3 C 8.1 km/h
137 09-06-2021 11:20:00 21.4 C 14.25 g/m*3 21.4 C 4.8 km/h
138 09-06-2021 11:25:00 21.6 C 14.41 g/m*3 21.6 C 3.2 km/h
139 09-06-2021 11:30:00 21.7 C 13.93 g/m*3 21.7 C 6.4 km/h
140 09-06-2021 11:35:00 21.8 C 14.2 g/m*3 21.8 C 8.1 km/h
141 09-06-2021 11:40:00 21.9 C 13.89 g/m*3 21.9 C 3.2 km/h
142 09-06-2021 11:45:00 22.1 C 13.66 g/m*3 22.1 C 6.4 km/h
143 09-06-2021 11:50:00 22.2 C 13.74 g/m*3 22.2 C 1.6 km/h
144 09-06-2021 11:55:00 22.2 C 13.74 g/m*3 22.2 C 0 km/h
145 09-06-2021 12:00:00 22.2 C 13.74 g/m*3 22.2 C 6.4 km/h
146 09-06-2021 12:05:00 22.3 C 13.82 g/m*3 22.3 C 6.4 km/h
147 09-06-2021 12:10:00 22.3 C 13.23 g/m*3 22.3 C 6.4 km/h
148 09-06-2021 12:15:00 22.4 C 13.5 g/m*3 22.4 C 6.4 km/h
149 09-06-2021 12:20:00 22.4 C 13.5 g/m*3 22.4 C 3.2 km/h
150 09-06-2021 12:25:00 22.5 C 14.38 g/m*3 22.5 C 1.6 km/h
Sensor: Nr:Datum:Temp:Abs-Feuchte:Windchill:Wind:
Aussen-T/F 151 09-06-2021 12:30:00 22.6 C 15.27 g/m*3 22.6 C 0 km/h
152 09-06-2021 12:35:00 22.6 C 14.06 g/m*3 22.6 C 0 km/h
153 09-06-2021 12:40:00 22.7 C 13.13 g/m*3 22.7 C 4.8 km/h
154 09-06-2021 12:45:00 22.9 C 13.08 g/m*3 22.9 C 3.2 km/h
155 09-06-2021 12:50:00 23.1 C 13.23 g/m*3 23.1 C 0 km/h
156 09-06-2021 12:55:00 23.3 C 12.96 g/m*3 23.3 C 9.7 km/h
157 09-06-2021 13:00:00 23.3 C 13.38 g/m*3 23.3 C 6.4 km/h
158 09-06-2021 13:05:00 23.3 C 13.38 g/m*3 23.3 C 1.6 km/h
159 09-06-2021 13:10:00 23.4 C 13.46 g/m*3 23.4 C 8.1 km/h
160 09-06-2021 13:15:00 23.5 C 13.75 g/m*3 23.5 C 9.7 km/h
161 09-06-2021 13:20:00 23.5 C 13.32 g/m*3 23.5 C 11.3 km/h
162 09-06-2021 13:25:00 23.6 C 13.4 g/m*3 23.6 C 8.1 km/h
163 09-06-2021 13:30:00 23.6 C 13.61 g/m*3 23.6 C 8.1 km/h
164 09-06-2021 13:35:00 23.7 C 13.69 g/m*3 23.7 C 11.3 km/h
165 09-06-2021 13:40:00 23.9 C 13.2 g/m*3 23.9 C 12.9 km/h
166 09-06-2021 13:45:00 24.1 C 13.35 g/m*3 24.1 C 8.1 km/h
167 09-06-2021 13:50:00 24.1 C 13.78 g/m*3 24.1 C 8.1 km/h
168 09-06-2021 13:55:00 24.1 C 14 g/m*3 24.1 C 9.7 km/h
169 09-06-2021 14:00:00 24.2 C 13.86 g/m*3 24.2 C 8.1 km/h
170 09-06-2021 14:05:00 24.3 C 13.28 g/m*3 24.3 C 9.7 km/h
171 09-06-2021 14:10:00 24.3 C 13.06 g/m*3 24.3 C 9.7 km/h
172 09-06-2021 14:15:00 24.4 C 12.91 g/m*3 24.4 C 8.1 km/h
173 09-06-2021 14:20:00 24.5 C 13.65 g/m*3 24.5 C 9.7 km/h
174 09-06-2021 14:25:00 24.7 C 13.35 g/m*3 24.7 C 9.7 km/h
175 09-06-2021 14:30:00 24.7 C 13.58 g/m*3 24.7 C 9.7 km/h
Sensor: Nr:Datum:Temp:Abs-Feuchte:Windchill:Wind:
Aussen-T/F 176 09-06-2021 14:35:00 24.7 C 13.58 g/m*3 24.7 C 12.9 km/h
177 09-06-2021 14:40:00 24.6 C 13.05 g/m*3 24.6 C 8.1 km/h
178 09-06-2021 14:45:00 24.7 C 13.35 g/m*3 24.7 C 9.7 km/h
179 09-06-2021 14:50:00 24.8 C 13.2 g/m*3 24.8 C 8.1 km/h
180 09-06-2021 14:55:00 24.8 C 13.2 g/m*3 24.8 C 4.8 km/h
181 09-06-2021 15:00:00 24.8 C 13.43 g/m*3 24.8 C 12.9 km/h
182 09-06-2021 15:05:00 24.9 C 13.28 g/m*3 24.9 C 8.1 km/h
183 09-06-2021 15:10:00 25.1 C 13.2 g/m*3 25.1 C 8.1 km/h
184 09-06-2021 15:15:00 25.2 C 13.74 g/m*3 25.2 C 9.7 km/h
185 09-06-2021 15:20:00 25.3 C 13.81 g/m*3 25.3 C 6.4 km/h
186 09-06-2021 15:25:00 25.5 C 13.49 g/m*3 25.5 C 4.8 km/h
187 09-06-2021 15:30:00 25.8 C 13 g/m*3 25.8 C 9.7 km/h
188 09-06-2021 15:35:00 26.1 C 12.98 g/m*3 26.1 C 11.3 km/h
189 09-06-2021 15:40:00 26.3 C 13.62 g/m*3 26.3 C 4.8 km/h
190 09-06-2021 15:45:00 26.6 C 13.59 g/m*3 26.6 C 11.3 km/h
191 09-06-2021 15:50:00 26.9 C 13.56 g/m*3 26.9 C 11.3 km/h
192 09-06-2021 15:55:00 26.9 C 12.8 g/m*3 26.9 C 9.7 km/h
193 09-06-2021 16:00:00 26.9 C 13.56 g/m*3 26.9 C 8.1 km/h
194 09-06-2021 16:05:00 27.2 C 13.53 g/m*3 27.2 C 12.9 km/h
195 09-06-2021 16:10:00 27.4 C 13.16 g/m*3 27.4 C 9.7 km/h
196 09-06-2021 16:15:00 27.5 C 13.23 g/m*3 27.5 C 9.7 km/h
197 09-06-2021 16:20:00 27.6 C 13.04 g/m*3 27.6 C 8.1 km/h
198 09-06-2021 16:25:00 27.7 C 13.11 g/m*3 27.7 C 8.1 km/h
199 09-06-2021 16:30:00 27.8 C 12.64 g/m*3 27.8 C 11.3 km/h
200 09-06-2021 16:35:00 27.7 C 12.57 g/m*3 27.7 C 4.8 km/h
Sensor: Nr:Datum:Temp:Abs-Feuchte:Windchill:Wind:
Aussen-T/F 201 09-06-2021 16:40:00 27.8 C 12.91 g/m*3 27.8 C 11.3 km/h
202 09-06-2021 16:45:00 27.8 C 12.37 g/m*3 27.8 C 8.1 km/h
203 09-06-2021 16:50:00 27.6 C 12.5 g/m*3 27.6 C 9.7 km/h
204 09-06-2021 16:55:00 27.7 C 13.37 g/m*3 27.7 C 8.1 km/h
205 09-06-2021 17:00:00 27.8 C 12.64 g/m*3 27.8 C 11.3 km/h
206 09-06-2021 17:05:00 27.7 C 12.57 g/m*3 27.7 C 11.3 km/h
207 09-06-2021 17:10:00 27.7 C 12.57 g/m*3 27.7 C 11.3 km/h
208 09-06-2021 17:15:00 27.7 C 12.84 g/m*3 27.7 C 11.3 km/h
209 09-06-2021 17:20:00 27.8 C 12.37 g/m*3 27.8 C 9.7 km/h
210 09-06-2021 17:25:00 27.9 C 12.17 g/m*3 27.9 C 6.4 km/h
211 09-06-2021 17:30:00 28.1 C 13.4 g/m*3 28.1 C 8.1 km/h
212 09-06-2021 17:35:00 28.3 C 12.99 g/m*3 28.3 C 8.1 km/h
213 09-06-2021 17:40:00 28.5 C 13.14 g/m*3 28.5 C 9.7 km/h
214 09-06-2021 17:45:00 28.4 C 12.79 g/m*3 28.4 C 9.7 km/h
215 09-06-2021 17:50:00 28.3 C 13.27 g/m*3 28.3 C 12.9 km/h
216 09-06-2021 17:55:00 28.1 C 13.13 g/m*3 28.1 C 11.3 km/h
217 09-06-2021 18:00:00 28.1 C 13.13 g/m*3 28.1 C 8.1 km/h
218 09-06-2021 18:05:00 28.1 C 13.13 g/m*3 28.1 C 6.4 km/h
219 09-06-2021 18:10:00 28 C 13.33 g/m*3 28 C 8.1 km/h
220 09-06-2021 18:15:00 27.8 C 12.64 g/m*3 27.8 C 9.7 km/h
221 09-06-2021 18:20:00 27.7 C 12.84 g/m*3 27.7 C 11.3 km/h
222 09-06-2021 18:25:00 27.6 C 12.5 g/m*3 27.6 C 8.1 km/h
223 09-06-2021 18:30:00 27.5 C 12.96 g/m*3 27.5 C 4.8 km/h
224 09-06-2021 18:35:00 27.7 C 12.57 g/m*3 27.7 C 8.1 km/h
225 09-06-2021 18:40:00 27.6 C 12.5 g/m*3 27.6 C 9.7 km/h
Sensor: Nr:Datum:Temp:Abs-Feuchte:Windchill:Wind:
Aussen-T/F 226 09-06-2021 18:45:00 27.5 C 12.7 g/m*3 27.5 C 8.1 km/h
227 09-06-2021 18:50:00 27.4 C 12.63 g/m*3 27.4 C 9.7 km/h
228 09-06-2021 18:55:00 27.2 C 12.23 g/m*3 27.2 C 9.7 km/h
229 09-06-2021 19:00:00 26.9 C 12.54 g/m*3 26.9 C 8.1 km/h
230 09-06-2021 19:05:00 26.9 C 13.05 g/m*3 26.9 C 6.4 km/h
231 09-06-2021 19:10:00 26.9 C 12.54 g/m*3 26.9 C 8.1 km/h
232 09-06-2021 19:15:00 26.9 C 12.8 g/m*3 26.9 C 6.4 km/h
233 09-06-2021 19:20:00 26.8 C 12.98 g/m*3 26.8 C 8.1 km/h
234 09-06-2021 19:25:00 26.6 C 12.84 g/m*3 26.6 C 9.7 km/h
235 09-06-2021 19:30:00 26.4 C 12.94 g/m*3 26.4 C 9.7 km/h
236 09-06-2021 19:35:00 26.2 C 12.56 g/m*3 26.2 C 8.1 km/h
237 09-06-2021 19:40:00 26.1 C 12.98 g/m*3 26.1 C 4.8 km/h
238 09-06-2021 19:45:00 26 C 13.15 g/m*3 26 C 3.2 km/h
239 09-06-2021 19:50:00 25.9 C 13.07 g/m*3 25.9 C 3.2 km/h
240 09-06-2021 19:55:00 25.8 C 13 g/m*3 25.8 C 4.8 km/h
241 09-06-2021 20:00:00 25.8 C 13.24 g/m*3 25.8 C 3.2 km/h
242 09-06-2021 20:05:00 25.8 C 13.24 g/m*3 25.8 C 3.2 km/h
243 09-06-2021 20:10:00 25.6 C 12.38 g/m*3 25.6 C 3.2 km/h
244 09-06-2021 20:15:00 25.6 C 13.09 g/m*3 25.6 C 1.6 km/h
245 09-06-2021 20:20:00 25.6 C 14.76 g/m*3 25.6 C 0 km/h
246 09-06-2021 20:25:00 25.4 C 14.83 g/m*3 25.4 C 0 km/h
247 09-06-2021 20:30:00 25.3 C 14.75 g/m*3 25.3 C 0 km/h
248 09-06-2021 20:35:00 25.2 C 14.9 g/m*3 25.2 C 0 km/h
249 09-06-2021 20:40:00 24.9 C 14.88 g/m*3 24.9 C 0 km/h
250 09-06-2021 20:45:00 24.6 C 15.08 g/m*3 24.6 C 0 km/h
Sensor: Nr:Datum:Temp:Abs-Feuchte:Windchill:Wind:
Aussen-T/F 251 09-06-2021 20:50:00 24.3 C 15.05 g/m*3 24.3 C 0 km/h
252 09-06-2021 20:55:00 23.9 C 14.71 g/m*3 23.9 C 0 km/h
253 09-06-2021 21:00:00 23.5 C 14.59 g/m*3 23.5 C 0 km/h
254 09-06-2021 21:05:00 23.2 C 14.55 g/m*3 23.2 C 0 km/h
255 09-06-2021 21:10:00 22.8 C 14.43 g/m*3 22.8 C 0 km/h
256 09-06-2021 21:15:00 22.4 C 14.1 g/m*3 22.4 C 3.2 km/h
257 09-06-2021 21:20:00 22.1 C 13.86 g/m*3 22.1 C 6.4 km/h
258 09-06-2021 21:25:00 21.7 C 13.93 g/m*3 21.7 C 6.4 km/h
259 09-06-2021 21:30:00 21.3 C 13.61 g/m*3 21.3 C 6.4 km/h
260 09-06-2021 21:35:00 21.1 C 13.63 g/m*3 21.1 C 4.8 km/h
261 09-06-2021 21:40:00 20.8 C 13.4 g/m*3 20.8 C 8.1 km/h
262 09-06-2021 21:45:00 20.6 C 13.42 g/m*3 20.6 C 8.1 km/h
263 09-06-2021 21:50:00 20.3 C 13.37 g/m*3 20.3 C 8.1 km/h
264 09-06-2021 21:55:00 20.2 C 13.11 g/m*3 20.2 C 8.1 km/h
265 09-06-2021 22:00:00 20.1 C 13.21 g/m*3 20.1 C 6.4 km/h
266 09-06-2021 22:05:00 20 C 13.13 g/m*3 20 C 6.4 km/h
267 09-06-2021 22:10:00 19.8 C 12.98 g/m*3 19.8 C 8.1 km/h
268 09-06-2021 22:15:00 19.8 C 13.15 g/m*3 19.8 C 6.4 km/h
269 09-06-2021 22:20:00 19.6 C 13 g/m*3 19.6 C 4.8 km/h
270 09-06-2021 22:25:00 19.6 C 13.17 g/m*3 19.6 C 3.2 km/h
271 09-06-2021 22:30:00 19.4 C 13.35 g/m*3 19.4 C 0 km/h
272 09-06-2021 22:35:00 19.2 C 13.19 g/m*3 19.2 C 0 km/h
273 09-06-2021 22:40:00 19 C 13.2 g/m*3 19 C 0 km/h
274 09-06-2021 22:45:00 18.8 C 13.21 g/m*3 18.8 C 0 km/h
275 09-06-2021 22:50:00 18.7 C 13.29 g/m*3 18.7 C 0 km/h
Sensor: Nr:Datum:Temp:Abs-Feuchte:Windchill:Wind:
Aussen-T/F 276 09-06-2021 22:55:00 18.6 C 13.21 g/m*3 18.6 C 0 km/h
277 09-06-2021 23:00:00 18.4 C 13.21 g/m*3 18.4 C 0 km/h
278 09-06-2021 23:05:00 18.3 C 13.13 g/m*3 18.3 C 0 km/h
279 09-06-2021 23:10:00 18.2 C 13.21 g/m*3 18.2 C 0 km/h
280 09-06-2021 23:15:00 18 C 13.06 g/m*3 18 C 0 km/h
281 09-06-2021 23:20:00 17.8 C 12.9 g/m*3 17.8 C 0 km/h
282 09-06-2021 23:25:00 17.7 C 12.98 g/m*3 17.7 C 0 km/h
283 09-06-2021 23:30:00 17.7 C 12.98 g/m*3 17.7 C 0 km/h
284 09-06-2021 23:35:00 17.6 C 12.9 g/m*3 17.6 C 0 km/h
285 09-06-2021 23:40:00 17.4 C 12.75 g/m*3 17.4 C 0 km/h
286 09-06-2021 23:45:00 17.3 C 12.67 g/m*3 17.3 C 1.6 km/h
287 09-06-2021 23:50:00 17.3 C 12.67 g/m*3 17.3 C 4.8 km/h
288 09-06-2021 23:55:00 17.2 C 12.74 g/m*3 17.2 C 1.6 km/h

Legende:
   Min
   Max


Maximal/Minimal-Werte vom 23.02.2003 - 23.04.2020

Sensor Min Max Avg
Temp
(Aussen-T/F)
-16.4 °C
20-12-2009  01:30:01
40.4 °C
25-07-2019  16:20:00
11.1 °C

Die Daten stammen von einer Davis Vantage Pro 2 Wetter-Station und werden unter Linux mit der Software wview2wettercgi und aufbereitet. Alle Angaben erfolgen ohne Gewähr für ihre Vollständigkeit oder Richtigkeit.
Kontakt: Rainer Krienke krienke@uni-koblenz.de . Meine Webseiten an der Uni Koblenz oder privat.
Version: $Revision: 0.78 $